sensor_id;sensor_type;location;lat;lon;timestamp;P1;durP1;ratioP1;P2;durP2;ratioP2
15281;SDS011;7742;44.320;19.820;2022-11-24T00:01:39;18.60;;;17.50;;
15281;SDS011;7742;44.320;19.820;2022-11-24T00:04:09;18.70;;;17.60;;
15281;SDS011;7742;44.320;19.820;2022-11-24T00:06:38;18.27;;;17.27;;
15281;SDS011;7742;44.320;19.820;2022-11-24T00:09:07;18.47;;;17.37;;
15281;SDS011;7742;44.320;19.820;2022-11-24T00:14:26;19.30;;;18.10;;
15281;SDS011;7742;44.320;19.820;2022-11-24T00:19:37;19.03;;;17.93;;
15281;SDS011;7742;44.320;19.820;2022-11-24T00:22:06;18.23;;;17.23;;
15281;SDS011;7742;44.320;19.820;2022-11-24T00:24:35;18.27;;;17.17;;
15281;SDS011;7742;44.320;19.820;2022-11-24T00:30:22;18.30;;;17.23;;
15281;SDS011;7742;44.320;19.820;2022-11-24T00:32:57;18.00;;;16.90;;
15281;SDS011;7742;44.320;19.820;2022-11-24T00:35:24;19.80;;;18.50;;
15281;SDS011;7742;44.320;19.820;2022-11-24T00:37:57;18.90;;;17.90;;
15281;SDS011;7742;44.320;19.820;2022-11-24T00:40:25;18.47;;;17.47;;
15281;SDS011;7742;44.320;19.820;2022-11-24T00:42:52;18.47;;;17.47;;
15281;SDS011;7742;44.320;19.820;2022-11-24T00:45:21;18.90;;;17.80;;
15281;SDS011;7742;44.320;19.820;2022-11-24T00:47:48;17.97;;;16.87;;
15281;SDS011;7742;44.320;19.820;2022-11-24T00:50:15;17.40;;;16.40;;
15281;SDS011;7742;44.320;19.820;2022-11-24T00:52:43;18.77;;;17.67;;
15281;SDS011;7742;44.320;19.820;2022-11-24T00:55:10;17.97;;;16.97;;
15281;SDS011;7742;44.320;19.820;2022-11-24T00:57:37;17.30;;;16.40;;
15281;SDS011;7742;44.320;19.820;2022-11-24T01:00:05;17.63;;;16.73;;
15281;SDS011;7742;44.320;19.820;2022-11-24T01:02:35;17.53;;;16.60;;
15281;SDS011;7742;44.320;19.820;2022-11-24T01:05:03;17.60;;;16.60;;
15281;SDS011;7742;44.320;19.820;2022-11-24T01:07:31;17.60;;;16.60;;
15281;SDS011;7742;44.320;19.820;2022-11-24T01:10:00;17.37;;;16.37;;
15281;SDS011;7742;44.320;19.820;2022-11-24T01:12:33;16.83;;;15.93;;
15281;SDS011;7742;44.320;19.820;2022-11-24T01:15:02;17.70;;;16.70;;
15281;SDS011;7742;44.320;19.820;2022-11-24T01:17:30;17.77;;;16.77;;
15281;SDS011;7742;44.320;19.820;2022-11-24T01:20:06;17.37;;;16.37;;
15281;SDS011;7742;44.320;19.820;2022-11-24T01:22:34;17.23;;;16.17;;
15281;SDS011;7742;44.320;19.820;2022-11-24T01:25:03;17.37;;;16.47;;
15281;SDS011;7742;44.320;19.820;2022-11-24T01:27:31;16.73;;;15.83;;
15281;SDS011;7742;44.320;19.820;2022-11-24T01:29:59;16.83;;;15.93;;
15281;SDS011;7742;44.320;19.820;2022-11-24T01:32:30;16.30;;;15.50;;
15281;SDS011;7742;44.320;19.820;2022-11-24T01:35:02;17.23;;;16.33;;
15281;SDS011;7742;44.320;19.820;2022-11-24T01:37:31;16.73;;;15.83;;
15281;SDS011;7742;44.320;19.820;2022-11-24T01:39:58;16.50;;;15.60;;
15281;SDS011;7742;44.320;19.820;2022-11-24T01:45:49;17.00;;;16.10;;
15281;SDS011;7742;44.320;19.820;2022-11-24T01:48:17;16.63;;;15.73;;
15281;SDS011;7742;44.320;19.820;2022-11-24T01:50:49;16.73;;;15.83;;
15281;SDS011;7742;44.320;19.820;2022-11-24T01:53:19;17.00;;;16.10;;
15281;SDS011;7742;44.320;19.820;2022-11-24T01:55:54;15.80;;;15.00;;
15281;SDS011;7742;44.320;19.820;2022-11-24T01:58:22;16.80;;;16.00;;
15281;SDS011;7742;44.320;19.820;2022-11-24T02:00:51;17.00;;;16.10;;
15281;SDS011;7742;44.320;19.820;2022-11-24T02:03:19;16.60;;;15.77;;
15281;SDS011;7742;44.320;19.820;2022-11-24T02:05:55;16.03;;;15.23;;
15281;SDS011;7742;44.320;19.820;2022-11-24T02:08:28;16.27;;;15.47;;
15281;SDS011;7742;44.320;19.820;2022-11-24T02:10:58;17.33;;;16.33;;
15281;SDS011;7742;44.320;19.820;2022-11-24T02:13:27;17.00;;;16.20;;
15281;SDS011;7742;44.320;19.820;2022-11-24T02:15:54;15.80;;;15.00;;
15281;SDS011;7742;44.320;19.820;2022-11-24T02:18:23;16.80;;;16.00;;
15281;SDS011;7742;44.320;19.820;2022-11-24T02:20:57;16.87;;;15.87;;
15281;SDS011;7742;44.320;19.820;2022-11-24T02:23:28;16.73;;;15.93;;
15281;SDS011;7742;44.320;19.820;2022-11-24T02:26:00;17.97;;;16.97;;
15281;SDS011;7742;44.320;19.820;2022-11-24T02:28:33;16.67;;;15.87;;
15281;SDS011;7742;44.320;19.820;2022-11-24T02:31:01;17.23;;;16.33;;
15281;SDS011;7742;44.320;19.820;2022-11-24T02:33:29;17.40;;;16.40;;
15281;SDS011;7742;44.320;19.820;2022-11-24T02:35:59;17.10;;;16.20;;
15281;SDS011;7742;44.320;19.820;2022-11-24T02:38:28;16.90;;;16.00;;
15281;SDS011;7742;44.320;19.820;2022-11-24T02:40:55;17.03;;;16.00;;
15281;SDS011;7742;44.320;19.820;2022-11-24T02:43:24;17.90;;;16.90;;
15281;SDS011;7742;44.320;19.820;2022-11-24T02:45:53;16.60;;;15.80;;
15281;SDS011;7742;44.320;19.820;2022-11-24T02:48:20;17.10;;;16.27;;
15281;SDS011;7742;44.320;19.820;2022-11-24T02:50:48;17.27;;;16.37;;
15281;SDS011;7742;44.320;19.820;2022-11-24T02:56:28;16.60;;;15.80;;
15281;SDS011;7742;44.320;19.820;2022-11-24T02:58:56;16.53;;;15.73;;
15281;SDS011;7742;44.320;19.820;2022-11-24T03:01:25;17.30;;;16.40;;
15281;SDS011;7742;44.320;19.820;2022-11-24T03:03:53;17.60;;;16.70;;
15281;SDS011;7742;44.320;19.820;2022-11-24T03:06:20;16.87;;;16.07;;
15281;SDS011;7742;44.320;19.820;2022-11-24T03:08:47;17.17;;;16.07;;
15281;SDS011;7742;44.320;19.820;2022-11-24T03:11:18;15.80;;;14.90;;
15281;SDS011;7742;44.320;19.820;2022-11-24T03:13:48;16.40;;;15.50;;
15281;SDS011;7742;44.320;19.820;2022-11-24T03:16:17;16.23;;;15.40;;
15281;SDS011;7742;44.320;19.820;2022-11-24T03:18:46;16.63;;;15.77;;
15281;SDS011;7742;44.320;19.820;2022-11-24T03:21:17;17.00;;;16.10;;
15281;SDS011;7742;44.320;19.820;2022-11-24T03:23:49;17.27;;;16.37;;
15281;SDS011;7742;44.320;19.820;2022-11-24T03:26:17;17.23;;;16.20;;
15281;SDS011;7742;44.320;19.820;2022-11-24T03:28:46;17.70;;;16.80;;
15281;SDS011;7742;44.320;19.820;2022-11-24T03:31:13;17.30;;;16.40;;
15281;SDS011;7742;44.320;19.820;2022-11-24T03:33:40;17.63;;;16.73;;
15281;SDS011;7742;44.320;19.820;2022-11-24T03:36:09;17.27;;;16.27;;
15281;SDS011;7742;44.320;19.820;2022-11-24T03:38:37;15.73;;;14.93;;
15281;SDS011;7742;44.320;19.820;2022-11-24T03:41:04;16.03;;;15.23;;
15281;SDS011;7742;44.320;19.820;2022-11-24T03:43:32;15.63;;;14.93;;
15281;SDS011;7742;44.320;19.820;2022-11-24T03:45:59;16.13;;;15.27;;
15281;SDS011;7742;44.320;19.820;2022-11-24T03:48:26;16.80;;;15.90;;
15281;SDS011;7742;44.320;19.820;2022-11-24T03:50:58;16.90;;;16.00;;
15281;SDS011;7742;44.320;19.820;2022-11-24T03:53:29;17.13;;;16.23;;
15281;SDS011;7742;44.320;19.820;2022-11-24T03:55:57;17.17;;;16.27;;
15281;SDS011;7742;44.320;19.820;2022-11-24T03:58:26;16.57;;;15.57;;
15281;SDS011;7742;44.320;19.820;2022-11-24T04:00:54;16.90;;;16.00;;
15281;SDS011;7742;44.320;19.820;2022-11-24T04:03:21;17.00;;;16.10;;
15281;SDS011;7742;44.320;19.820;2022-11-24T04:05:49;18.13;;;17.10;;
15281;SDS011;7742;44.320;19.820;2022-11-24T04:08:17;17.47;;;16.57;;
15281;SDS011;7742;44.320;19.820;2022-11-24T04:10:55;17.33;;;16.43;;
15281;SDS011;7742;44.320;19.820;2022-11-24T04:16:42;17.37;;;16.47;;
15281;SDS011;7742;44.320;19.820;2022-11-24T04:19:09;18.23;;;17.33;;
15281;SDS011;7742;44.320;19.820;2022-11-24T04:21:36;17.33;;;16.43;;
15281;SDS011;7742;44.320;19.820;2022-11-24T04:24:04;16.80;;;15.90;;
15281;SDS011;7742;44.320;19.820;2022-11-24T04:26:33;16.97;;;16.07;;
15281;SDS011;7742;44.320;19.820;2022-11-24T04:29:00;17.53;;;16.53;;
15281;SDS011;7742;44.320;19.820;2022-11-24T04:31:27;17.70;;;16.50;;
15281;SDS011;7742;44.320;19.820;2022-11-24T04:33:55;17.57;;;16.63;;
15281;SDS011;7742;44.320;19.820;2022-11-24T04:36:22;17.87;;;16.97;;
15281;SDS011;7742;44.320;19.820;2022-11-24T04:38:50;17.50;;;16.50;;
15281;SDS011;7742;44.320;19.820;2022-11-24T04:41:18;18.00;;;17.00;;
15281;SDS011;7742;44.320;19.820;2022-11-24T04:43:49;20.13;;;18.83;;
15281;SDS011;7742;44.320;19.820;2022-11-24T04:46:20;19.57;;;18.37;;
15281;SDS011;7742;44.320;19.820;2022-11-24T04:48:47;26.43;;;24.27;;
15281;SDS011;7742;44.320;19.820;2022-11-24T04:51:15;51.10;;;46.67;;
15281;SDS011;7742;44.320;19.820;2022-11-24T04:53:42;50.07;;;46.37;;
15281;SDS011;7742;44.320;19.820;2022-11-24T04:56:09;21.47;;;20.27;;
15281;SDS011;7742;44.320;19.820;2022-11-24T04:58:37;20.50;;;19.30;;
15281;SDS011;7742;44.320;19.820;2022-11-24T05:01:09;19.20;;;18.10;;
15281;SDS011;7742;44.320;19.820;2022-11-24T05:03:42;18.90;;;17.70;;
15281;SDS011;7742;44.320;19.820;2022-11-24T05:06:09;17.70;;;16.70;;
15281;SDS011;7742;44.320;19.820;2022-11-24T05:08:37;18.47;;;17.37;;
15281;SDS011;7742;44.320;19.820;2022-11-24T05:11:04;18.50;;;17.40;;
15281;SDS011;7742;44.320;19.820;2022-11-24T05:13:32;19.00;;;17.90;;
15281;SDS011;7742;44.320;19.820;2022-11-24T05:19:29;18.03;;;17.03;;
15281;SDS011;7742;44.320;19.820;2022-11-24T05:21:57;18.77;;;17.67;;
15281;SDS011;7742;44.320;19.820;2022-11-24T05:24:24;19.10;;;18.00;;
15281;SDS011;7742;44.320;19.820;2022-11-24T05:26:51;20.03;;;18.83;;
15281;SDS011;7742;44.320;19.820;2022-11-24T05:29:19;19.77;;;18.57;;
15281;SDS011;7742;44.320;19.820;2022-11-24T05:31:46;20.40;;;19.13;;
15281;SDS011;7742;44.320;19.820;2022-11-24T05:34:13;20.00;;;18.80;;
15281;SDS011;7742;44.320;19.820;2022-11-24T05:36:43;19.83;;;18.53;;
15281;SDS011;7742;44.320;19.820;2022-11-24T05:39:20;20.03;;;18.73;;
15281;SDS011;7742;44.320;19.820;2022-11-24T05:41:57;19.93;;;18.63;;
15281;SDS011;7742;44.320;19.820;2022-11-24T05:44:24;20.17;;;18.87;;
15281;SDS011;7742;44.320;19.820;2022-11-24T05:46:52;20.40;;;19.10;;
15281;SDS011;7742;44.320;19.820;2022-11-24T05:49:19;20.50;;;19.20;;
15281;SDS011;7742;44.320;19.820;2022-11-24T05:51:48;20.27;;;19.07;;
15281;SDS011;7742;44.320;19.820;2022-11-24T05:54:15;21.55;;;20.25;;
15281;SDS011;7742;44.320;19.820;2022-11-24T05:56:50;21.75;;;20.45;;
15281;SDS011;7742;44.320;19.820;2022-11-24T05:59:18;21.90;;;20.50;;
15281;SDS011;7742;44.320;19.820;2022-11-24T06:01:45;20.80;;;19.60;;
15281;SDS011;7742;44.320;19.820;2022-11-24T06:04:12;21.03;;;19.63;;
15281;SDS011;7742;44.320;19.820;2022-11-24T06:06:40;20.80;;;19.40;;
15281;SDS011;7742;44.320;19.820;2022-11-24T06:09:08;20.57;;;19.17;;
15281;SDS011;7742;44.320;19.820;2022-11-24T06:11:36;20.57;;;19.27;;
15281;SDS011;7742;44.320;19.820;2022-11-24T06:14:04;20.60;;;19.20;;
15281;SDS011;7742;44.320;19.820;2022-11-24T06:16:31;20.57;;;19.27;;
15281;SDS011;7742;44.320;19.820;2022-11-24T06:18:58;20.90;;;19.60;;
15281;SDS011;7742;44.320;19.820;2022-11-24T06:21:26;20.17;;;18.87;;
15281;SDS011;7742;44.320;19.820;2022-11-24T06:23:53;21.10;;;19.70;;
15281;SDS011;7742;44.320;19.820;2022-11-24T06:26:22;20.27;;;19.00;;
15281;SDS011;7742;44.320;19.820;2022-11-24T06:28:49;20.23;;;19.00;;
15281;SDS011;7742;44.320;19.820;2022-11-24T06:31:16;20.33;;;19.03;;
15281;SDS011;7742;44.320;19.820;2022-11-24T06:33:45;20.10;;;18.83;;
15281;SDS011;7742;44.320;19.820;2022-11-24T06:36:13;20.50;;;19.20;;
15281;SDS011;7742;44.320;19.820;2022-11-24T06:38:56;20.57;;;19.17;;
15281;SDS011;7742;44.320;19.820;2022-11-24T06:41:24;19.97;;;18.77;;
15281;SDS011;7742;44.320;19.820;2022-11-24T06:43:52;19.73;;;18.43;;
15281;SDS011;7742;44.320;19.820;2022-11-24T06:46:19;20.10;;;18.80;;
15281;SDS011;7742;44.320;19.820;2022-11-24T06:48:46;20.00;;;18.70;;
15281;SDS011;7742;44.320;19.820;2022-11-24T06:51:16;20.37;;;19.13;;
15281;SDS011;7742;44.320;19.820;2022-11-24T06:53:44;18.60;;;17.40;;
15281;SDS011;7742;44.320;19.820;2022-11-24T06:56:12;19.37;;;18.17;;
15281;SDS011;7742;44.320;19.820;2022-11-24T06:58:42;19.07;;;17.93;;
15281;SDS011;7742;44.320;19.820;2022-11-24T07:01:13;19.17;;;17.97;;
15281;SDS011;7742;44.320;19.820;2022-11-24T07:03:40;19.87;;;18.67;;
15281;SDS011;7742;44.320;19.820;2022-11-24T07:06:07;19.33;;;18.03;;
15281;SDS011;7742;44.320;19.820;2022-11-24T07:08:35;20.03;;;18.83;;
15281;SDS011;7742;44.320;19.820;2022-11-24T07:11:03;18.40;;;17.30;;
15281;SDS011;7742;44.320;19.820;2022-11-24T07:13:31;17.77;;;16.67;;
15281;SDS011;7742;44.320;19.820;2022-11-24T07:16:05;18.13;;;17.03;;
15281;SDS011;7742;44.320;19.820;2022-11-24T07:18:36;19.37;;;18.17;;
15281;SDS011;7742;44.320;19.820;2022-11-24T07:21:04;18.80;;;17.60;;
15281;SDS011;7742;44.320;19.820;2022-11-24T07:23:31;19.60;;;18.30;;
15281;SDS011;7742;44.320;19.820;2022-11-24T07:26:00;19.20;;;18.00;;
15281;SDS011;7742;44.320;19.820;2022-11-24T07:28:28;19.67;;;18.47;;
15281;SDS011;7742;44.320;19.820;2022-11-24T07:30:56;19.87;;;18.57;;
15281;SDS011;7742;44.320;19.820;2022-11-24T07:33:25;18.57;;;17.53;;
15281;SDS011;7742;44.320;19.820;2022-11-24T07:35:53;18.30;;;17.13;;
15281;SDS011;7742;44.320;19.820;2022-11-24T07:38:20;18.40;;;17.30;;
15281;SDS011;7742;44.320;19.820;2022-11-24T07:40:47;17.73;;;16.63;;
15281;SDS011;7742;44.320;19.820;2022-11-24T07:43:15;18.40;;;17.30;;
15281;SDS011;7742;44.320;19.820;2022-11-24T07:45:42;19.13;;;18.03;;
15281;SDS011;7742;44.320;19.820;2022-11-24T07:48:09;19.23;;;17.93;;
15281;SDS011;7742;44.320;19.820;2022-11-24T07:50:38;17.47;;;16.47;;
15281;SDS011;7742;44.320;19.820;2022-11-24T07:53:06;18.17;;;17.07;;
15281;SDS011;7742;44.320;19.820;2022-11-24T07:55:33;17.73;;;16.63;;
15281;SDS011;7742;44.320;19.820;2022-11-24T07:58:01;17.83;;;16.73;;
15281;SDS011;7742;44.320;19.820;2022-11-24T08:00:28;18.27;;;17.17;;
15281;SDS011;7742;44.320;19.820;2022-11-24T08:02:56;17.77;;;16.77;;
15281;SDS011;7742;44.320;19.820;2022-11-24T08:05:23;17.73;;;16.73;;
15281;SDS011;7742;44.320;19.820;2022-11-24T08:07:52;16.17;;;15.27;;
15281;SDS011;7742;44.320;19.820;2022-11-24T08:10:20;17.07;;;16.17;;
15281;SDS011;7742;44.320;19.820;2022-11-24T08:12:47;17.63;;;16.73;;
15281;SDS011;7742;44.320;19.820;2022-11-24T08:15:14;17.43;;;16.50;;
15281;SDS011;7742;44.320;19.820;2022-11-24T08:17:42;17.60;;;16.57;;
15281;SDS011;7742;44.320;19.820;2022-11-24T08:20:09;17.27;;;16.27;;
15281;SDS011;7742;44.320;19.820;2022-11-24T08:22:37;17.23;;;16.27;;
15281;SDS011;7742;44.320;19.820;2022-11-24T08:25:06;17.77;;;16.77;;
15281;SDS011;7742;44.320;19.820;2022-11-24T08:27:34;16.03;;;15.13;;
15281;SDS011;7742;44.320;19.820;2022-11-24T08:30:01;16.90;;;15.90;;
15281;SDS011;7742;44.320;19.820;2022-11-24T08:32:28;17.27;;;16.27;;
15281;SDS011;7742;44.320;19.820;2022-11-24T08:34:56;17.30;;;16.40;;
15281;SDS011;7742;44.320;19.820;2022-11-24T08:37:23;16.93;;;16.03;;
15281;SDS011;7742;44.320;19.820;2022-11-24T08:39:51;17.77;;;16.77;;
15281;SDS011;7742;44.320;19.820;2022-11-24T08:42:20;16.83;;;15.93;;
15281;SDS011;7742;44.320;19.820;2022-11-24T08:44:48;14.90;;;14.10;;
15281;SDS011;7742;44.320;19.820;2022-11-24T08:47:16;16.83;;;15.83;;
15281;SDS011;7742;44.320;19.820;2022-11-24T08:49:43;14.80;;;14.00;;
15281;SDS011;7742;44.320;19.820;2022-11-24T08:52:11;15.43;;;14.63;;
15281;SDS011;7742;44.320;19.820;2022-11-24T08:54:39;16.30;;;15.40;;
15281;SDS011;7742;44.320;19.820;2022-11-24T08:57:08;17.40;;;16.40;;
15281;SDS011;7742;44.320;19.820;2022-11-24T08:59:37;16.07;;;15.10;;
15281;SDS011;7742;44.320;19.820;2022-11-24T09:02:05;16.70;;;15.85;;
15281;SDS011;7742;44.320;19.820;2022-11-24T09:04:33;17.13;;;16.23;;
15281;SDS011;7742;44.320;19.820;2022-11-24T09:07:00;15.40;;;14.60;;
15281;SDS011;7742;44.320;19.820;2022-11-24T09:09:27;16.87;;;15.97;;
15281;SDS011;7742;44.320;19.820;2022-11-24T09:11:55;15.97;;;15.17;;
15281;SDS011;7742;44.320;19.820;2022-11-24T09:14:22;17.00;;;16.10;;
15281;SDS011;7742;44.320;19.820;2022-11-24T09:16:51;16.80;;;15.90;;
15281;SDS011;7742;44.320;19.820;2022-11-24T09:19:18;16.20;;;15.30;;
15281;SDS011;7742;44.320;19.820;2022-11-24T09:21:45;16.38;;;15.55;;
15281;SDS011;7742;44.320;19.820;2022-11-24T09:24:13;16.15;;;15.35;;
15281;SDS011;7742;44.320;19.820;2022-11-24T09:26:40;15.20;;;14.40;;
15281;SDS011;7742;44.320;19.820;2022-11-24T09:29:09;15.27;;;14.57;;
15281;SDS011;7742;44.320;19.820;2022-11-24T09:31:36;15.20;;;14.50;;
15281;SDS011;7742;44.320;19.820;2022-11-24T09:34:07;15.27;;;14.47;;
15281;SDS011;7742;44.320;19.820;2022-11-24T09:36:36;15.68;;;14.88;;
15281;SDS011;7742;44.320;19.820;2022-11-24T09:39:03;15.40;;;14.60;;
15281;SDS011;7742;44.320;19.820;2022-11-24T09:41:43;13.77;;;13.07;;
15281;SDS011;7742;44.320;19.820;2022-11-24T09:44:30;14.95;;;14.15;;
15281;SDS011;7742;44.320;19.820;2022-11-24T09:47:05;13.93;;;13.32;;
15281;SDS011;7742;44.320;19.820;2022-11-24T09:49:41;15.07;;;14.37;;
15281;SDS011;7742;44.320;19.820;2022-11-24T09:52:12;14.20;;;13.50;;
15281;SDS011;7742;44.320;19.820;2022-11-24T09:54:44;14.37;;;13.67;;
15281;SDS011;7742;44.320;19.820;2022-11-24T09:57:14;15.03;;;14.23;;
15281;SDS011;7742;44.320;19.820;2022-11-24T09:59:42;14.50;;;13.80;;
15281;SDS011;7742;44.320;19.820;2022-11-24T10:02:10;14.27;;;13.57;;
15281;SDS011;7742;44.320;19.820;2022-11-24T10:04:38;14.23;;;13.63;;
15281;SDS011;7742;44.320;19.820;2022-11-24T10:07:13;14.40;;;13.70;;
15281;SDS011;7742;44.320;19.820;2022-11-24T10:09:46;13.80;;;13.13;;
15281;SDS011;7742;44.320;19.820;2022-11-24T10:12:27;14.27;;;13.63;;
15281;SDS011;7742;44.320;19.820;2022-11-24T10:15:14;15.00;;;14.20;;
15281;SDS011;7742;44.320;19.820;2022-11-24T10:17:53;13.30;;;12.70;;
15281;SDS011;7742;44.320;19.820;2022-11-24T10:20:44;14.10;;;13.50;;
15281;SDS011;7742;44.320;19.820;2022-11-24T10:23:20;13.90;;;13.20;;
15281;SDS011;7742;44.320;19.820;2022-11-24T10:25:56;14.30;;;13.60;;
15281;SDS011;7742;44.320;19.820;2022-11-24T10:28:28;13.50;;;12.80;;
15281;SDS011;7742;44.320;19.820;2022-11-24T10:30:59;13.80;;;13.20;;
15281;SDS011;7742;44.320;19.820;2022-11-24T10:33:42;13.80;;;13.20;;
15281;SDS011;7742;44.320;19.820;2022-11-24T10:36:12;13.20;;;12.60;;
15281;SDS011;7742;44.320;19.820;2022-11-24T10:38:44;13.47;;;12.87;;
15281;SDS011;7742;44.320;19.820;2022-11-24T10:41:17;14.50;;;13.80;;
15281;SDS011;7742;44.320;19.820;2022-11-24T10:43:47;13.77;;;13.17;;
15281;SDS011;7742;44.320;19.820;2022-11-24T10:46:15;13.33;;;12.73;;
15281;SDS011;7742;44.320;19.820;2022-11-24T10:48:46;13.77;;;13.17;;
15281;SDS011;7742;44.320;19.820;2022-11-24T10:54:01;14.07;;;13.37;;
15281;SDS011;7742;44.320;19.820;2022-11-24T10:56:37;13.93;;;13.32;;
15281;SDS011;7742;44.320;19.820;2022-11-24T10:59:26;12.80;;;12.30;;
15281;SDS011;7742;44.320;19.820;2022-11-24T11:01:56;13.85;;;13.25;;
15281;SDS011;7742;44.320;19.820;2022-11-24T11:04:25;13.13;;;12.53;;
15281;SDS011;7742;44.320;19.820;2022-11-24T11:09:41;13.50;;;12.90;;
15281;SDS011;7742;44.320;19.820;2022-11-24T11:12:09;14.35;;;13.65;;
15281;SDS011;7742;44.320;19.820;2022-11-24T11:14:37;13.80;;;13.20;;
15281;SDS011;7742;44.320;19.820;2022-11-24T11:20:16;13.70;;;13.10;;
15281;SDS011;7742;44.320;19.820;2022-11-24T11:22:46;13.00;;;12.40;;
15281;SDS011;7742;44.320;19.820;2022-11-24T11:25:19;13.50;;;12.90;;
15281;SDS011;7742;44.320;19.820;2022-11-24T11:27:48;13.90;;;13.30;;
15281;SDS011;7742;44.320;19.820;2022-11-24T11:30:16;14.40;;;13.80;;
15281;SDS011;7742;44.320;19.820;2022-11-24T11:32:50;13.10;;;12.60;;
15281;SDS011;7742;44.320;19.820;2022-11-24T11:35:19;13.57;;;12.98;;
15281;SDS011;7742;44.320;19.820;2022-11-24T11:37:48;13.53;;;12.93;;
15281;SDS011;7742;44.320;19.820;2022-11-24T11:40:17;13.68;;;13.07;;
15281;SDS011;7742;44.320;19.820;2022-11-24T11:42:49;13.50;;;12.90;;
15281;SDS011;7742;44.320;19.820;2022-11-24T11:45:20;13.97;;;13.37;;
15281;SDS011;7742;44.320;19.820;2022-11-24T11:47:50;13.60;;;13.00;;
15281;SDS011;7742;44.320;19.820;2022-11-24T11:50:21;13.33;;;12.67;;
15281;SDS011;7742;44.320;19.820;2022-11-24T11:52:59;13.60;;;12.90;;
15281;SDS011;7742;44.320;19.820;2022-11-24T11:55:36;12.80;;;12.10;;
15281;SDS011;7742;44.320;19.820;2022-11-24T11:58:21;12.60;;;12.00;;
15281;SDS011;7742;44.320;19.820;2022-11-24T12:00:57;13.10;;;12.50;;
15281;SDS011;7742;44.320;19.820;2022-11-24T12:03:32;13.83;;;13.10;;
15281;SDS011;7742;44.320;19.820;2022-11-24T12:06:19;15.43;;;14.63;;
15281;SDS011;7742;44.320;19.820;2022-11-24T12:09:10;14.50;;;13.70;;
15281;SDS011;7742;44.320;19.820;2022-11-24T12:11:45;14.23;;;13.63;;
15281;SDS011;7742;44.320;19.820;2022-11-24T12:14:20;14.60;;;13.90;;
15281;SDS011;7742;44.320;19.820;2022-11-24T12:16:55;14.55;;;13.85;;
15281;SDS011;7742;44.320;19.820;2022-11-24T12:19:38;14.17;;;13.47;;
15281;SDS011;7742;44.320;19.820;2022-11-24T12:22:12;14.35;;;13.70;;
15281;SDS011;7742;44.320;19.820;2022-11-24T12:24:48;13.93;;;13.23;;
15281;SDS011;7742;44.320;19.820;2022-11-24T12:27:22;14.80;;;14.02;;
15281;SDS011;7742;44.320;19.820;2022-11-24T12:32:43;14.00;;;13.30;;
15281;SDS011;7742;44.320;19.820;2022-11-24T12:35:35;14.03;;;13.40;;
15281;SDS011;7742;44.320;19.820;2022-11-24T12:38:08;14.00;;;13.30;;
15281;SDS011;7742;44.320;19.820;2022-11-24T12:40:48;13.33;;;12.73;;
15281;SDS011;7742;44.320;19.820;2022-11-24T12:43:25;14.07;;;13.37;;
15281;SDS011;7742;44.320;19.820;2022-11-24T12:45:58;14.53;;;13.77;;
15281;SDS011;7742;44.320;19.820;2022-11-24T12:48:41;14.73;;;14.03;;
15281;SDS011;7742;44.320;19.820;2022-11-24T12:51:16;13.90;;;13.20;;
15281;SDS011;7742;44.320;19.820;2022-11-24T12:53:45;14.40;;;13.60;;
15281;SDS011;7742;44.320;19.820;2022-11-24T12:56:16;13.50;;;12.90;;
15281;SDS011;7742;44.320;19.820;2022-11-24T12:58:48;14.17;;;13.47;;
15281;SDS011;7742;44.320;19.820;2022-11-24T13:01:21;13.90;;;13.20;;
15281;SDS011;7742;44.320;19.820;2022-11-24T13:03:58;14.00;;;13.37;;
15281;SDS011;7742;44.320;19.820;2022-11-24T13:06:32;14.47;;;13.77;;
15281;SDS011;7742;44.320;19.820;2022-11-24T13:09:06;14.40;;;13.60;;
15281;SDS011;7742;44.320;19.820;2022-11-24T13:11:39;13.70;;;13.00;;
15281;SDS011;7742;44.320;19.820;2022-11-24T13:14:12;14.13;;;13.50;;
15281;SDS011;7742;44.320;19.820;2022-11-24T13:16:51;14.30;;;13.70;;
15281;SDS011;7742;44.320;19.820;2022-11-24T13:19:20;14.43;;;13.73;;
15281;SDS011;7742;44.320;19.820;2022-11-24T13:24:40;13.77;;;13.07;;
15281;SDS011;7742;44.320;19.820;2022-11-24T13:33:17;13.80;;;13.00;;
15281;SDS011;7742;44.320;19.820;2022-11-24T13:38:54;12.87;;;12.37;;
15281;SDS011;7742;44.320;19.820;2022-11-24T13:44:45;12.47;;;11.90;;
15281;SDS011;7742;44.320;19.820;2022-11-24T13:47:29;12.90;;;12.20;;
15281;SDS011;7742;44.320;19.820;2022-11-24T13:50:01;14.10;;;13.30;;
15281;SDS011;7742;44.320;19.820;2022-11-24T13:52:35;13.30;;;12.70;;
15281;SDS011;7742;44.320;19.820;2022-11-24T13:55:17;12.30;;;11.70;;
15281;SDS011;7742;44.320;19.820;2022-11-24T13:57:51;13.32;;;12.63;;
15281;SDS011;7742;44.320;19.820;2022-11-24T14:00:21;12.77;;;12.27;;
15281;SDS011;7742;44.320;19.820;2022-11-24T14:02:50;13.50;;;12.90;;
15281;SDS011;7742;44.320;19.820;2022-11-24T14:05:20;13.00;;;12.40;;
15281;SDS011;7742;44.320;19.820;2022-11-24T14:07:49;13.67;;;12.97;;
15281;SDS011;7742;44.320;19.820;2022-11-24T14:10:18;14.45;;;13.68;;
15281;SDS011;7742;44.320;19.820;2022-11-24T14:12:53;13.83;;;13.13;;
15281;SDS011;7742;44.320;19.820;2022-11-24T14:16:04;13.50;;;12.90;;
15281;SDS011;7742;44.320;19.820;2022-11-24T14:18:32;13.27;;;12.67;;
15281;SDS011;7742;44.320;19.820;2022-11-24T14:21:13;13.13;;;12.53;;
15281;SDS011;7742;44.320;19.820;2022-11-24T14:23:47;13.17;;;12.50;;
15281;SDS011;7742;44.320;19.820;2022-11-24T14:26:16;14.20;;;13.60;;
15281;SDS011;7742;44.320;19.820;2022-11-24T14:28:45;14.20;;;13.40;;
15281;SDS011;7742;44.320;19.820;2022-11-24T14:31:19;13.90;;;13.30;;
15281;SDS011;7742;44.320;19.820;2022-11-24T14:33:47;13.20;;;12.60;;
15281;SDS011;7742;44.320;19.820;2022-11-24T14:36:15;14.17;;;13.37;;
15281;SDS011;7742;44.320;19.820;2022-11-24T14:38:43;14.07;;;13.37;;
15281;SDS011;7742;44.320;19.820;2022-11-24T14:41:17;14.90;;;14.20;;
15281;SDS011;7742;44.320;19.820;2022-11-24T14:44:02;13.70;;;13.10;;
15281;SDS011;7742;44.320;19.820;2022-11-24T14:46:32;14.70;;;13.90;;
15281;SDS011;7742;44.320;19.820;2022-11-24T14:49:00;13.90;;;13.20;;
15281;SDS011;7742;44.320;19.820;2022-11-24T14:51:29;14.53;;;13.87;;
15281;SDS011;7742;44.320;19.820;2022-11-24T14:53:58;14.37;;;13.67;;
15281;SDS011;7742;44.320;19.820;2022-11-24T14:56:28;13.80;;;13.17;;
15281;SDS011;7742;44.320;19.820;2022-11-24T14:58:56;13.60;;;13.00;;
15281;SDS011;7742;44.320;19.820;2022-11-24T15:01:28;13.23;;;12.63;;
15281;SDS011;7742;44.320;19.820;2022-11-24T15:04:11;14.60;;;13.90;;
15281;SDS011;7742;44.320;19.820;2022-11-24T15:06:43;15.32;;;14.63;;
15281;SDS011;7742;44.320;19.820;2022-11-24T15:09:19;14.60;;;13.90;;
15281;SDS011;7742;44.320;19.820;2022-11-24T15:11:50;13.27;;;12.60;;
15281;SDS011;7742;44.320;19.820;2022-11-24T15:14:28;12.80;;;12.20;;
15281;SDS011;7742;44.320;19.820;2022-11-24T15:17:07;13.70;;;13.00;;
15281;SDS011;7742;44.320;19.820;2022-11-24T15:19:43;15.03;;;14.10;;
15281;SDS011;7742;44.320;19.820;2022-11-24T15:22:34;13.80;;;13.13;;
15281;SDS011;7742;44.320;19.820;2022-11-24T15:27:50;14.63;;;13.93;;
15281;SDS011;7742;44.320;19.820;2022-11-24T15:30:17;14.80;;;14.00;;
15281;SDS011;7742;44.320;19.820;2022-11-24T15:32:49;15.25;;;14.40;;